createdAt,value
2023-04-01T00:01:28.734Z,17.16
2023-04-01T00:03:55.625Z,17.18
2023-04-01T00:06:22.791Z,17.48
2023-04-01T00:08:49.531Z,17.36
2023-04-01T00:11:17.409Z,17.36
2023-04-01T00:13:52.200Z,17.08
2023-04-01T00:16:24.446Z,17.45
2023-04-01T00:18:58.793Z,17.40
2023-04-01T00:21:26.310Z,17.42
2023-04-01T00:23:58.605Z,17.43
2023-04-01T00:26:26.315Z,17.14
2023-04-01T00:29:02.875Z,17.37
2023-04-01T00:31:32.945Z,17.34
2023-04-01T00:34:03.179Z,17.27
2023-04-01T00:36:32.639Z,17.40
2023-04-01T00:39:04.476Z,17.06
2023-04-01T00:41:31.381Z,17.25
2023-04-01T00:44:35.440Z,17.55
2023-04-01T00:47:02.456Z,17.16
2023-04-01T00:49:39.658Z,17.23
2023-04-01T00:52:09.597Z,17.33
2023-04-01T00:54:43.370Z,17.25
2023-04-01T00:57:28.340Z,17.32
2023-04-01T01:00:05.656Z,17.27
2023-04-01T01:02:34.277Z,17.48
2023-04-01T01:05:01.118Z,17.15
2023-04-01T01:07:47.656Z,17.46
2023-04-01T01:10:21.870Z,17.16
2023-04-01T01:13:05.553Z,17.39
2023-04-01T01:15:42.942Z,17.29
2023-04-01T01:18:28.834Z,17.13
2023-04-01T01:21:47.707Z,17.37
2023-04-01T01:24:31.392Z,17.11
2023-04-01T01:27:00.264Z,17.41
2023-04-01T01:29:40.748Z,17.39
2023-04-01T01:32:40.890Z,17.31
2023-04-01T01:35:33.640Z,17.41
2023-04-01T01:38:15.414Z,17.38
2023-04-01T01:40:45.823Z,17.41
2023-04-01T01:43:17.018Z,17.42
2023-04-01T01:45:51.695Z,17.42
2023-04-01T01:48:20.887Z,17.38
2023-04-01T01:50:49.638Z,17.36
2023-04-01T01:53:16.747Z,17.42
2023-04-01T01:55:46.346Z,17.36
2023-04-01T01:58:23.279Z,17.37
2023-04-01T02:00:54.133Z,17.41
2023-04-01T02:03:24.000Z,17.40
2023-04-01T02:05:53.129Z,17.41
2023-04-01T02:08:25.950Z,17.43
2023-04-01T02:11:06.057Z,17.42
2023-04-01T02:13:41.407Z,17.42
2023-04-01T02:16:16.221Z,17.38
2023-04-01T02:18:46.197Z,17.38
2023-04-01T02:21:14.433Z,17.39
2023-04-01T02:23:41.667Z,17.42
2023-04-01T02:26:10.475Z,17.39
2023-04-01T02:28:39.536Z,17.39
2023-04-01T02:31:07.270Z,17.38
2023-04-01T02:33:34.057Z,17.35
2023-04-01T02:36:00.885Z,17.38
2023-04-01T02:38:27.557Z,17.40
2023-04-01T02:40:59.855Z,17.43
2023-04-01T02:43:26.889Z,17.43
2023-04-01T02:45:53.521Z,17.39
2023-04-01T02:48:20.325Z,17.40
2023-04-01T02:50:47.332Z,17.41
2023-04-01T02:53:13.959Z,17.41
2023-04-01T02:55:40.759Z,17.42
2023-04-01T02:58:07.618Z,17.42
2023-04-01T03:00:34.258Z,17.45
2023-04-01T03:03:01.293Z,17.36
2023-04-01T03:05:28.088Z,17.43
2023-04-01T03:07:54.671Z,17.40
2023-04-01T03:10:21.721Z,17.41
2023-04-01T03:12:48.299Z,17.40
2023-04-01T03:15:15.718Z,17.43
2023-04-01T03:17:43.866Z,17.40
2023-04-01T03:20:12.178Z,17.42
2023-04-01T03:22:40.861Z,17.41
2023-04-01T03:25:09.923Z,17.42
2023-04-01T03:27:36.920Z,17.37
2023-04-01T03:30:07.827Z,17.41
2023-04-01T03:32:34.691Z,17.38
2023-04-01T03:35:01.363Z,17.38
2023-04-01T03:37:27.919Z,17.41
2023-04-01T03:39:54.578Z,17.37
2023-04-01T03:42:21.376Z,17.37
2023-04-01T03:44:47.976Z,17.40
2023-04-01T03:47:14.535Z,17.34
2023-04-01T03:49:41.136Z,17.36
2023-04-01T03:52:11.685Z,17.41
2023-04-01T03:54:38.694Z,17.42
2023-04-01T03:57:05.890Z,17.42
2023-04-01T03:59:32.787Z,17.37
2023-04-01T04:01:59.376Z,17.36
2023-04-01T04:04:27.105Z,17.41
2023-04-01T04:06:55.005Z,17.39
2023-04-01T04:09:21.730Z,17.38
2023-04-01T04:11:48.624Z,17.37
2023-04-01T04:14:15.203Z,17.35
2023-04-01T04:16:41.883Z,17.34
2023-04-01T04:19:08.483Z,17.37
2023-04-01T04:21:35.040Z,17.33
2023-04-01T04:24:02.359Z,17.33
2023-04-01T04:26:28.980Z,17.33
2023-04-01T04:28:56.386Z,17.32
2023-04-01T04:31:25.007Z,17.31
2023-04-01T04:33:52.684Z,17.33
2023-04-01T04:36:19.956Z,17.32
2023-04-01T04:38:46.904Z,17.29
2023-04-01T04:41:15.321Z,17.29
2023-04-01T04:43:42.732Z,17.28
2023-04-01T04:46:12.284Z,17.25
2023-04-01T04:48:38.835Z,17.24
2023-04-01T04:51:05.918Z,17.24
2023-04-01T04:53:32.485Z,17.23
2023-04-01T04:55:59.068Z,17.23
2023-04-01T04:58:25.589Z,17.22
2023-04-01T05:00:52.111Z,17.21
2023-04-01T05:03:18.820Z,17.22
2023-04-01T05:05:53.505Z,17.23
2023-04-01T05:08:20.362Z,17.21
2023-04-01T05:10:47.072Z,17.21
2023-04-01T05:13:13.677Z,17.24
2023-04-01T05:15:40.519Z,17.21
2023-04-01T05:18:07.400Z,17.25
2023-04-01T05:20:33.976Z,17.28
2023-04-01T05:23:01.198Z,17.31
2023-04-01T05:25:27.963Z,17.33
2023-04-01T05:27:54.784Z,17.31
2023-04-01T05:30:21.612Z,17.31
2023-04-01T05:32:48.422Z,17.36
2023-04-01T05:35:15.423Z,17.38
2023-04-01T05:37:42.123Z,17.36
2023-04-01T05:40:10.668Z,17.38
2023-04-01T05:42:38.406Z,17.38
2023-04-01T05:45:06.177Z,17.41
2023-04-01T05:47:32.961Z,17.39
2023-04-01T05:49:59.630Z,17.37
2023-04-01T05:52:26.377Z,17.44
2023-04-01T05:54:53.039Z,17.42
2023-04-01T05:57:19.665Z,17.46
2023-04-01T05:59:46.864Z,17.42
2023-04-01T06:02:13.845Z,17.45
2023-04-01T06:04:41.481Z,17.46
2023-04-01T06:07:16.456Z,17.50
2023-04-01T06:09:44.256Z,17.49
2023-04-01T06:12:32.649Z,17.50
2023-04-01T06:15:02.078Z,17.51
2023-04-01T06:17:41.908Z,17.50
2023-04-01T06:20:08.502Z,17.51
2023-04-01T06:22:41.136Z,17.52
2023-04-01T06:25:31.334Z,17.52
2023-04-01T06:28:23.978Z,17.52
2023-04-01T06:31:07.767Z,17.54
2023-04-01T06:34:02.843Z,17.53
2023-04-01T06:36:32.587Z,17.54
2023-04-01T06:39:23.023Z,17.52
2023-04-01T06:42:17.303Z,17.48
2023-04-01T06:44:56.505Z,17.43
2023-04-01T06:47:38.031Z,17.41
2023-04-01T06:50:13.596Z,17.39
2023-04-01T06:52:57.106Z,17.38
2023-04-01T06:56:09.078Z,17.36
2023-04-01T06:58:52.871Z,17.35
2023-04-01T07:01:25.217Z,17.35
2023-04-01T07:04:00.498Z,17.31
2023-04-01T07:06:32.737Z,17.34
2023-04-01T07:09:07.790Z,17.31
2023-04-01T07:11:38.195Z,17.30
2023-04-01T07:14:36.211Z,17.30
2023-04-01T07:17:14.439Z,17.28
2023-04-01T07:19:48.259Z,17.28
2023-04-01T07:22:27.848Z,17.30
2023-04-01T07:24:55.063Z,17.25
2023-04-01T07:27:21.601Z,17.31
2023-04-01T07:29:48.475Z,17.28
2023-04-01T07:32:26.267Z,17.31
2023-04-01T07:35:17.740Z,17.31
2023-04-01T07:38:15.006Z,17.30
2023-04-01T07:41:01.764Z,17.30
2023-04-01T07:43:42.084Z,17.31
2023-04-01T07:46:26.983Z,17.28
2023-04-01T07:49:04.870Z,17.29
2023-04-01T07:51:59.809Z,17.30
2023-04-01T07:54:40.574Z,17.28
2023-04-01T07:57:38.039Z,17.29
2023-04-01T08:00:10.530Z,17.28
2023-04-01T08:02:49.494Z,17.28
2023-04-01T08:05:19.147Z,17.28
2023-04-01T08:07:56.624Z,17.28
2023-04-01T08:10:23.221Z,17.28
2023-04-01T08:13:08.260Z,17.27
2023-04-01T08:15:46.855Z,17.27
2023-04-01T08:18:33.597Z,17.28
2023-04-01T08:21:28.329Z,17.29
2023-04-01T08:23:59.091Z,17.30
2023-04-01T08:26:54.967Z,17.32
2023-04-01T08:29:39.037Z,17.33
2023-04-01T08:32:23.228Z,17.34
2023-04-01T08:35:08.078Z,17.34
2023-04-01T08:37:40.055Z,17.37
2023-04-01T08:40:48.388Z,17.39
2023-04-01T08:43:30.647Z,17.38
2023-04-01T08:46:15.769Z,17.39
2023-04-01T08:48:54.602Z,17.43
2023-04-01T08:51:43.807Z,17.44
2023-04-01T08:54:30.543Z,17.47
2023-04-01T08:57:09.273Z,17.47
2023-04-01T08:59:54.202Z,17.49
2023-04-01T09:02:54.885Z,17.49
2023-04-01T09:05:36.069Z,17.52
2023-04-01T09:08:18.449Z,17.53
2023-04-01T09:11:03.808Z,17.56
2023-04-01T09:14:11.905Z,17.58
2023-04-01T09:17:15.358Z,17.61
2023-04-01T09:20:03.436Z,17.62
2023-04-01T09:22:47.435Z,17.63
2023-04-01T09:25:28.098Z,17.64
2023-04-01T09:28:07.160Z,17.64
2023-04-01T09:30:52.273Z,17.66
2023-04-01T09:34:03.982Z,17.66
2023-04-01T09:36:46.059Z,17.65
2023-04-01T09:39:39.291Z,17.66
2023-04-01T09:42:27.752Z,17.68
2023-04-01T09:45:06.197Z,17.69
2023-04-01T09:47:56.072Z,17.67
2023-04-01T09:51:00.347Z,17.71
2023-04-01T09:53:48.072Z,17.71
2023-04-01T09:56:34.301Z,17.70
2023-04-01T09:59:00.792Z,17.71
2023-04-01T10:01:49.172Z,17.72
2023-04-01T10:04:31.415Z,17.73
2023-04-01T10:07:13.313Z,17.73
2023-04-01T10:09:48.665Z,17.73
2023-04-01T10:12:17.481Z,17.72
2023-04-01T10:15:02.204Z,17.74
2023-04-01T10:17:34.932Z,17.75
2023-04-01T10:20:22.089Z,17.75
2023-04-01T10:23:19.264Z,17.76
2023-04-01T10:26:11.752Z,17.77
2023-04-01T10:29:40.078Z,17.79
2023-04-01T10:32:40.434Z,17.78
2023-04-01T10:35:46.177Z,17.83
2023-04-01T10:38:12.711Z,17.84
2023-04-01T10:40:56.557Z,17.85
2023-04-01T10:43:41.950Z,17.89
2023-04-01T10:46:17.905Z,17.90
2023-04-01T10:49:10.831Z,17.90
2023-04-01T10:52:21.640Z,17.92
2023-04-01T10:55:25.411Z,17.92
2023-04-01T10:58:12.703Z,17.90
2023-04-01T11:01:02.356Z,17.93
2023-04-01T11:03:59.814Z,17.93
2023-04-01T11:06:52.031Z,17.93
2023-04-01T11:09:37.498Z,17.93
2023-04-01T11:12:06.668Z,17.94
2023-04-01T11:15:04.061Z,17.94
2023-04-01T11:17:49.406Z,17.94
2023-04-01T11:20:31.080Z,17.94
2023-04-01T11:23:03.522Z,17.95
2023-04-01T11:26:02.975Z,17.94
2023-04-01T11:28:48.152Z,17.94
2023-04-01T11:31:43.896Z,17.94
2023-04-01T11:34:49.544Z,17.94
2023-04-01T11:37:34.297Z,17.94
2023-04-01T11:40:12.407Z,17.94
2023-04-01T11:42:55.328Z,17.91
2023-04-01T11:45:37.025Z,17.94
2023-04-01T11:48:31.478Z,17.95
2023-04-01T11:51:21.297Z,17.94
2023-04-01T11:54:26.167Z,17.96
2023-04-01T11:57:30.875Z,17.96
2023-04-01T12:00:31.390Z,17.97
2023-04-01T12:03:25.341Z,17.99
2023-04-01T12:05:59.516Z,17.99
2023-04-01T12:08:38.379Z,18.02
2023-04-01T12:11:22.354Z,18.02
2023-04-01T12:14:27.625Z,18.01
2023-04-01T12:17:15.824Z,18.03
2023-04-01T12:20:21.370Z,18.04
2023-04-01T12:23:07.270Z,18.03
2023-04-01T12:25:57.924Z,18.05
2023-04-01T12:28:47.201Z,18.05
2023-04-01T12:31:13.749Z,18.05
2023-04-01T12:33:57.528Z,18.06
2023-04-01T12:36:38.950Z,18.05
2023-04-01T12:39:21.377Z,18.05
2023-04-01T12:41:56.780Z,18.03
2023-04-01T12:44:35.030Z,18.05
2023-04-01T12:47:23.643Z,18.04
2023-04-01T12:50:02.625Z,18.03
2023-04-01T12:52:35.382Z,17.93
2023-04-01T12:55:11.020Z,18.04
2023-04-01T12:58:04.935Z,18.04
2023-04-01T13:00:45.268Z,18.03
2023-04-01T13:03:24.343Z,18.03
2023-04-01T13:06:21.016Z,18.03
2023-04-01T13:09:20.258Z,18.02
2023-04-01T13:12:12.048Z,18.04
2023-04-01T13:15:16.281Z,18.04
2023-04-01T13:18:04.979Z,18.03
2023-04-01T13:20:53.478Z,18.05
2023-04-01T13:23:51.176Z,18.02
2023-04-01T13:26:31.899Z,18.04
2023-04-01T13:29:04.462Z,18.05
2023-04-01T13:31:48.733Z,18.06
2023-04-01T13:34:17.970Z,18.06
2023-04-01T13:37:22.201Z,18.06
2023-04-01T13:39:54.503Z,18.07
2023-04-01T13:42:33.040Z,18.08
2023-04-01T13:45:11.995Z,18.09
2023-04-01T13:47:47.771Z,18.09
2023-04-01T13:50:49.732Z,18.08
2023-04-01T13:53:37.877Z,18.08
2023-04-01T13:56:43.803Z,18.09
2023-04-01T13:59:58.180Z,18.08
2023-04-01T14:02:36.891Z,18.08
2023-04-01T14:05:32.436Z,18.06
2023-04-01T14:08:27.135Z,18.07
2023-04-01T14:11:08.593Z,18.05
2023-04-01T14:13:56.436Z,18.08
2023-04-01T14:16:56.888Z,18.07
2023-04-01T14:20:03.059Z,18.07
2023-04-01T14:22:52.019Z,18.06
2023-04-01T14:25:40.581Z,18.04
2023-04-01T14:28:16.016Z,18.06
2023-04-01T14:31:06.930Z,18.08
2023-04-01T14:33:47.748Z,18.05
2023-04-01T14:36:15.042Z,18.07
2023-04-01T14:38:54.267Z,18.08
2023-04-01T14:41:48.181Z,18.08
2023-04-01T14:44:17.853Z,18.08
2023-04-01T14:47:01.222Z,18.06
2023-04-01T14:49:38.270Z,18.08
2023-04-01T14:52:12.601Z,18.05
2023-04-01T14:54:42.656Z,18.08
2023-04-01T14:57:24.862Z,18.07
2023-04-01T15:00:02.156Z,18.07
2023-04-01T15:02:43.596Z,18.09
2023-04-01T15:05:19.022Z,18.08
2023-04-01T15:08:03.012Z,18.08
2023-04-01T15:10:55.360Z,18.04
2023-04-01T15:13:57.033Z,18.06
2023-04-01T15:16:48.742Z,18.05
2023-04-01T15:19:27.227Z,18.06
2023-04-01T15:22:30.709Z,18.06
2023-04-01T15:25:00.292Z,18.05
2023-04-01T15:27:37.781Z,18.06
2023-04-01T15:30:22.677Z,18.05
2023-04-01T15:32:55.386Z,18.05
2023-04-01T15:35:45.626Z,18.06
2023-04-01T15:38:44.820Z,18.04
2023-04-01T15:41:26.849Z,18.03
2023-04-01T15:43:53.887Z,18.03
2023-04-01T15:46:40.973Z,18.02
2023-04-01T15:49:17.861Z,18.04
2023-04-01T15:51:49.680Z,18.04
2023-04-01T15:54:53.195Z,18.04
2023-04-01T15:57:33.908Z,18.04
2023-04-01T16:00:18.471Z,18.02
2023-04-01T16:02:48.467Z,18.03
2023-04-01T16:05:36.526Z,18.02
2023-04-01T16:08:35.280Z,18.03
2023-04-01T16:11:17.852Z,17.99
2023-04-01T16:14:32.649Z,18.03
2023-04-01T16:17:23.494Z,18.01
2023-04-01T16:20:01.008Z,18.00
2023-04-01T16:22:41.538Z,18.01
2023-04-01T16:25:38.432Z,18.01
2023-04-01T16:28:21.259Z,18.00
2023-04-01T16:30:59.486Z,18.00
2023-04-01T16:33:50.104Z,18.00
2023-04-01T16:36:55.986Z,17.99
2023-04-01T16:39:44.755Z,17.97
2023-04-01T16:42:23.011Z,17.97
2023-04-01T16:44:52.649Z,17.96
2023-04-01T16:47:33.898Z,17.96
2023-04-01T16:50:22.550Z,17.98
2023-04-01T16:52:49.070Z,17.97
2023-04-01T16:55:22.169Z,17.96
2023-04-01T16:57:56.768Z,17.99
2023-04-01T17:00:26.314Z,17.98
2023-04-01T17:03:07.988Z,17.99
2023-04-01T17:05:56.667Z,17.98
2023-04-01T17:08:51.810Z,17.98
2023-04-01T17:11:19.826Z,17.97
2023-04-01T17:14:00.328Z,17.96
2023-04-01T17:16:39.280Z,17.96
2023-04-01T17:19:37.629Z,17.94
2023-04-01T17:22:20.917Z,17.97
2023-04-01T17:24:59.933Z,17.94
2023-04-01T17:27:26.444Z,17.96
2023-04-01T17:29:55.989Z,17.96
2023-04-01T17:32:42.682Z,17.96
2023-04-01T17:35:55.291Z,17.95
2023-04-01T17:38:57.557Z,17.95
2023-04-01T17:41:38.505Z,17.95
2023-04-01T17:44:05.042Z,17.94
2023-04-01T17:46:38.073Z,17.95
2023-04-01T17:49:26.237Z,17.95
2023-04-01T17:52:07.129Z,17.90
2023-04-01T17:55:00.357Z,17.93
2023-04-01T17:57:29.973Z,17.94
2023-04-01T18:00:23.003Z,17.89
2023-04-01T18:03:06.490Z,17.93
2023-04-01T18:05:51.878Z,17.93
2023-04-01T18:08:39.648Z,17.92
2023-04-01T18:11:43.608Z,17.92
2023-04-01T18:14:25.142Z,17.91
2023-04-01T18:17:24.637Z,17.89
2023-04-01T18:20:03.298Z,17.91
2023-04-01T18:22:40.860Z,17.86
2023-04-01T18:25:22.279Z,17.90
2023-04-01T18:27:54.404Z,17.89
2023-04-01T18:30:33.835Z,17.87
2023-04-01T18:33:17.881Z,17.90
2023-04-01T18:35:50.460Z,17.89
2023-04-01T18:38:27.271Z,17.88
2023-04-01T18:41:34.335Z,17.88
2023-04-01T18:44:19.536Z,17.88
2023-04-01T18:47:19.909Z,17.87
2023-04-01T18:49:46.499Z,17.87
2023-04-01T18:52:21.918Z,17.87
2023-04-01T18:55:33.644Z,17.86
2023-04-01T18:58:18.448Z,17.86
2023-04-01T19:00:55.604Z,17.85
2023-04-01T19:03:33.957Z,17.86
2023-04-01T19:06:02.472Z,17.85
2023-04-01T19:08:33.338Z,17.82
2023-04-01T19:11:28.258Z,17.86
2023-04-01T19:14:04.258Z,17.83
2023-04-01T19:16:47.046Z,17.85
2023-04-01T19:19:28.527Z,17.86
2023-04-01T19:22:00.515Z,17.83
2023-04-01T19:24:45.846Z,17.86
2023-04-01T19:27:37.591Z,17.84
2023-04-01T19:30:47.664Z,17.84
2023-04-01T19:33:26.458Z,17.83
2023-04-01T19:36:01.813Z,17.84
2023-04-01T19:38:37.231Z,17.83
2023-04-01T19:41:36.034Z,17.83
2023-04-01T19:44:21.123Z,17.83
2023-04-01T19:46:54.492Z,17.81
2023-04-01T19:49:39.123Z,17.83
2023-04-01T19:52:33.940Z,17.83
2023-04-01T19:55:16.799Z,17.83
2023-04-01T19:58:05.366Z,17.80
2023-04-01T20:00:40.572Z,17.80
2023-04-01T20:03:07.497Z,17.81
2023-04-01T20:05:41.066Z,17.82
2023-04-01T20:08:23.642Z,17.80
2023-04-01T20:10:53.264Z,17.82
2023-04-01T20:13:22.833Z,17.82
2023-04-01T20:16:07.332Z,17.83
2023-04-01T20:18:45.472Z,17.83
2023-04-01T20:21:20.868Z,17.83
2023-04-01T20:23:56.599Z,17.82
2023-04-01T20:26:26.804Z,17.79
2023-04-01T20:29:16.517Z,17.82
2023-04-01T20:31:48.638Z,17.80
2023-04-01T20:34:37.049Z,17.80
2023-04-01T20:37:30.738Z,17.81
2023-04-01T20:40:38.745Z,17.80
2023-04-01T20:43:42.743Z,17.79
2023-04-01T20:46:15.094Z,17.80
2023-04-01T20:49:03.546Z,17.79
2023-04-01T20:51:31.905Z,17.79
2023-04-01T20:54:34.170Z,17.77
2023-04-01T20:57:21.451Z,17.78
2023-04-01T21:00:10.040Z,17.78
2023-04-01T21:03:04.220Z,17.75
2023-04-01T21:05:42.738Z,17.76
2023-04-01T21:08:37.442Z,17.77
2023-04-01T21:11:34.327Z,17.76
2023-04-01T21:14:26.012Z,17.76
2023-04-01T21:17:17.464Z,17.75
2023-04-01T21:20:02.625Z,17.75
2023-04-01T21:22:29.117Z,17.75
2023-04-01T21:25:22.235Z,17.75
2023-04-01T21:28:13.144Z,17.74
2023-04-01T21:31:07.031Z,17.74
2023-04-01T21:34:12.714Z,17.74
2023-04-01T21:36:45.378Z,17.74
2023-04-01T21:39:42.736Z,17.73
2023-04-01T21:42:12.358Z,17.72
2023-04-01T21:44:44.917Z,17.71
2023-04-01T21:47:32.710Z,17.70
2023-04-01T21:50:20.566Z,17.68
2023-04-01T21:53:16.110Z,17.66
2023-04-01T21:55:48.727Z,17.67
2023-04-01T21:58:15.310Z,17.65
2023-04-01T22:01:16.172Z,17.64
2023-04-01T22:04:10.774Z,17.63
2023-04-01T22:06:45.172Z,17.61
2023-04-01T22:09:19.257Z,17.61
2023-04-01T22:12:03.866Z,17.60
2023-04-01T22:15:09.554Z,17.55
2023-04-01T22:17:52.970Z,17.54
2023-04-01T22:20:38.682Z,17.56
2023-04-01T22:23:30.394Z,17.54
2023-04-01T22:26:11.223Z,17.53
2023-04-01T22:29:07.222Z,17.51
2023-04-01T22:31:40.544Z,17.51
2023-04-01T22:34:17.347Z,17.47
2023-04-01T22:37:02.553Z,17.49
2023-04-01T22:39:49.452Z,17.49
2023-04-01T22:42:31.636Z,17.49
2023-04-01T22:44:58.133Z,17.46
2023-04-01T22:47:50.648Z,17.47
2023-04-01T22:50:36.009Z,17.43
2023-04-01T22:53:40.764Z,17.42
2023-04-01T22:56:14.948Z,17.43
2023-04-01T22:58:54.792Z,17.41
2023-04-01T23:01:27.278Z,17.42
2023-04-01T23:03:54.301Z,17.41
2023-04-01T23:06:29.485Z,17.40
2023-04-01T23:09:20.663Z,17.41
2023-04-01T23:11:49.755Z,17.41
2023-04-01T23:14:19.477Z,17.41
2023-04-01T23:16:51.392Z,17.41
2023-04-01T23:19:36.403Z,17.39
2023-04-01T23:22:31.107Z,17.37
2023-04-01T23:25:19.197Z,17.35
2023-04-01T23:27:52.972Z,17.38
2023-04-01T23:30:41.366Z,17.36
2023-04-01T23:33:21.088Z,17.36
2023-04-01T23:36:08.834Z,17.35
2023-04-01T23:38:38.837Z,17.31
2023-04-01T23:41:07.534Z,17.34
2023-04-01T23:43:42.349Z,17.32
2023-04-01T23:46:09.541Z,17.32
2023-04-01T23:48:43.686Z,17.32
2023-04-01T23:51:23.321Z,17.31
2023-04-01T23:54:04.922Z,17.30
2023-04-01T23:56:47.460Z,17.28
2023-04-01T23:59:30.553Z,17.27
